ULLIUSNN

Guest
Details From ULLI - Saint Petersburg Pulkovo
To USNN - Nizhnevartovsk
Flight Number -
Tags Generated
Created
Modified
Stats Distance 1,346 nm / 2,493 km
Max Altitude 0 ft / 0 m
Waypoints 5
Social Downloads 0
Likes 0
Share VATSIM

Download

Looking for another format? Having issues loading an existing format? Contact us
Advertisement - Login to hide

Notes

Generated

Route

ULLI TEGRA GISAN NJC USNN

ID Type Via Altitude Latitude Longitude Leg Dist Tot Dist Heading (true) Name
O ULLI APT - 0 ft / 0 m 59.80973˚ 30.24537˚ - 0 nm - -
TEGRA FIX - 0 ft / 0 m 61.10667˚ 37.13000˚ 218 nm 218 nm 66° / 72° -
GISAN FIX - 0 ft / 0 m 62.18333˚ 52.51667˚ 442 nm 660 nm 75° / 88° -
NJC VOR - 0 ft / 0 m 60.94333˚ 76.46833˚ 685 nm 1345 nm 86° / 107° NIZHNEVARTOVSK VOR-DME
O USNN APT - 0 ft / 0 m 60.93872˚ 76.46381˚ 0 nm 1345 nm 205° / 205° -

Altitude Profile

Advertisement - Login to hide

Weather


0- 5 10 15 20 25 30 35+ Temperature / ° C

Clouds and Precipitation
Forecast for 2017-12-11 18:00 UTC. Updated 15 minutes ago

Ground ~20,000 ft ~40,000 ft Winds

ULLI

Details ICAO ULLI (LED)
Name Saint Petersburg Pulkovo
Region Russia
Timezone Europe/Moscow (UTC+3.0)
Stats Elevation 78 ft / 24 m (AMSL)
Location 59.800292° 30.262504°
Runways 2
Magnetic Variation 10.694° E

METAR

ULLI 111730Z 27003MPS 8000 SCT010 OVC020 M01/M02 Q1004 R28R/290050 NOSIG

Decode

TAF

TAF ULLI 111359Z 1115/1215 28003MPS 6000 BKN011 TEMPO 1115/1124 3100 BR BKN006 OVC011 BECMG 1200/1202 16005MPS TEMPO 1200/1207 16006G11MPS 3100 -SN OVC011 FM120700 17008G15MPS 5000 -SN BLSN OVC011 TEMPO 1209/1215 1200 SHSN -FZRA OVC004 BKN015CB

Decode

Departure Runways

ID Width Length Bearing (true) Bearing (mag) Surface Threshold Offset Overrun Length
10L 197 ft / 60 m 11,115 ft / 3,388 m 106.38° 95.69° Concrete 0 ft / 0 m 235 ft / 72 m
10R 197 ft / 60 m 12,365 ft / 3,769 m 106.40° 95.71° Concrete 0 ft / 0 m 220 ft / 67 m
28L 197 ft / 60 m 12,365 ft / 3,769 m 286.46° 275.77° Concrete 0 ft / 0 m 260 ft / 79 m
28R 197 ft / 60 m 11,115 ft / 3,388 m 286.44° 275.75° Concrete 0 ft / 0 m 240 ft / 73 m

USNN

Details ICAO USNN (NJC)
Name NIZHNEVARTOVSK
Region Russia
Timezone Asia/Yekaterinburg (UTC+5.0)
Stats Elevation 177 ft / 54 m (AMSL)
Location 60.949272° 76.483618°
Runways 1
Magnetic Variation 15.733° E

METAR

USNN 111730Z 01003MPS 9999 -SN OVC041 M13/M14 Q1030 R03/450456 NOSIG RMK QFE768

Decode

TAF

TAF USNN 111400Z 1115/1215 01003MPS 4000 BR BKN017 TEMPO 1115/1118 2000 SN BR BKN007 TEMPO 1118/1203 VRB01MPS 0200 FZFG VV002 BECMG 1205/1206 26003MPS 9999 NSW

Decode

Destination Runways

ID Width Length Bearing (true) Bearing (mag) Surface Threshold Offset Overrun Length
03 197 ft / 60 m 10,417 ft / 3,175 m 42.34° 26.61° Asphalt 0 ft / 0 m 245 ft / 75 m
21 197 ft / 60 m 10,417 ft / 3,175 m 222.38° 206.65° Asphalt 0 ft / 0 m 245 ft / 75 m

Popular Alternatives